Time;durP1;ratioP1;P1;durP2;ratioP2;P2;SDS_P1;SDS_P2;PMS_P1;PMS_P2;Temp;Humidity;BMP_temperature;BMP_pressure;BME280_temperature;BME280_humidity;BME280_pressure;Samples;Min_cycle;Max_cycle;Signal;HPM_P1;HPM_P2
2022/05/15 00:01:55;;;;;;;13.07;6.35;;;;;;;16.18;66.11;95150.72;5010145;28;20103;-75
2022/05/15 00:04:20;;;;;;;17.35;6.65;;;;;;;16.17;65.69;95151.78;5011638;28;20042;-75
2022/05/15 00:06:46;;;;;;;13.45;6.82;;;;;;;16.15;66.25;95151.25;5010316;28;20030;-76
2022/05/15 00:09:11;;;;;;;12.75;5.55;;;;;;;16.11;66.29;95150.19;4993988;28;20077;-75
2022/05/15 00:11:37;;;;;;;22.55;6.75;;;;;;;16.12;66.58;95146.53;5009532;28;20895;-75
2022/05/15 00:14:02;;;;;;;10.38;6.43;;;;;;;16.09;66.90;95149.63;5011399;28;20038;-75
2022/05/15 00:16:28;;;;;;;16.75;7.13;;;;;;;16.02;67.00;95149.09;5009886;28;20052;-75
2022/05/15 00:18:54;;;;;;;21.15;7.10;;;;;;;15.97;67.05;95145.69;5011021;28;20060;-75
2022/05/15 00:21:19;;;;;;;29.20;7.50;;;;;;;15.94;67.24;95144.34;5009737;28;20711;-75
2022/05/15 00:23:45;;;;;;;15.95;6.40;;;;;;;15.93;67.19;95150.63;5010225;28;20034;-77
2022/05/15 00:26:10;;;;;;;12.75;6.10;;;;;;;15.92;67.03;95146.44;4993530;28;20426;-74
2022/05/15 00:28:36;;;;;;;17.42;6.18;;;;;;;15.86;66.73;95139.59;5011334;28;20049;-74
2022/05/15 00:31:02;;;;;;;16.20;6.40;;;;;;;15.79;67.18;95137.22;5010690;28;20413;-74
2022/05/15 00:33:34;;;;;;;17.23;7.07;;;;;;;15.75;67.58;95141.38;4991946;28;20044;-75
2022/05/15 00:35:59;;;;;;;36.27;6.80;;;;;;;15.70;67.76;95151.06;5009039;28;20046;-74
2022/05/15 00:38:25;;;;;;;32.47;8.05;;;;;;;15.64;67.87;95159.97;5009861;28;20316;-75
2022/05/15 00:40:51;;;;;;;34.45;8.45;;;;;;;15.59;68.41;95147.59;5009477;28;20418;-75
2022/05/15 00:44:05;;;;;;;9.38;6.50;;;;;;;15.51;68.39;95148.06;5009737;28;20034;-75
2022/05/15 00:46:32;;;;;;;13.52;6.20;;;;;;;15.47;68.59;95147.78;5008791;28;20184;-74
2022/05/15 00:49:00;;;;;;;14.27;6.70;;;;;;;15.41;68.86;95151.41;5009600;28;20041;-75
2022/05/15 00:51:46;;;;;;;12.10;7.30;;;;;;;15.38;69.36;95151.91;5009225;28;20503;-74
2022/05/15 00:54:34;;;;;;;15.75;8.35;;;;;;;15.39;69.96;95158.72;5010684;28;20053;-74
2022/05/15 00:57:10;;;;;;;21.75;9.23;;;;;;;15.39;69.69;95165.81;5011223;28;20092;-74
2022/05/15 00:59:49;;;;;;;16.05;8.02;;;;;;;15.38;69.16;95164.22;5010027;28;20481;-74
2022/05/15 01:02:15;;;;;;;13.23;8.55;;;;;;;15.39;69.27;95156.09;5009146;28;20124;-73
2022/05/15 01:04:41;;;;;;;11.32;8.32;;;;;;;15.32;69.11;95160.78;4993854;28;20030;-75
2022/05/15 01:07:07;;;;;;;15.63;8.57;;;;;;;15.37;68.98;95152.94;5009279;28;20061;-74
2022/05/15 01:09:32;;;;;;;13.48;8.13;;;;;;;15.41;69.07;95150.59;5010478;28;20044;-74
2022/05/15 01:11:58;;;;;;;14.70;7.78;;;;;;;15.43;69.37;95157.16;5009100;28;20033;-74
2022/05/15 01:14:23;;;;;;;12.73;7.40;;;;;;;15.42;69.08;95154.81;5009164;28;20037;-74
2022/05/15 01:16:48;;;;;;;9.43;7.32;;;;;;;15.38;69.58;95157.16;5008734;28;20038;-74
2022/05/15 01:19:14;;;;;;;10.40;6.88;;;;;;;15.31;69.42;95151.34;5009197;28;20038;-74
2022/05/15 01:21:55;;;;;;;33.25;8.40;;;;;;;15.24;69.51;95151.56;5008844;28;20030;-74
2022/05/15 01:24:20;;;;;;;16.58;7.72;;;;;;;15.23;69.20;95149.19;4993120;28;20057;-74
2022/05/15 01:26:46;;;;;;;14.60;8.15;;;;;;;15.18;69.73;95149.16;4992502;28;20390;-74
2022/05/15 01:29:11;;;;;;;18.98;8.60;;;;;;;15.15;68.98;95154.91;5010298;28;20037;-74
2022/05/15 01:31:37;;;;;;;14.85;8.90;;;;;;;15.05;69.67;95157.44;5009797;28;20030;-74
2022/05/15 01:34:04;;;;;;;14.15;9.40;;;;;;;15.02;70.03;95154.28;4992425;28;20538;-74
2022/05/15 01:36:30;;;;;;;15.82;8.88;;;;;;;14.98;69.87;95153.22;5010042;28;20501;-74
2022/05/15 01:38:56;;;;;;;24.73;10.48;;;;;;;14.95;69.98;95148.47;4992280;28;20042;-74
2022/05/15 01:41:22;;;;;;;23.48;10.82;;;;;;;14.88;70.13;95147.91;5009722;28;20040;-74
2022/05/15 01:43:49;;;;;;;17.27;9.98;;;;;;;14.88;70.35;95152.34;5008923;28;20121;-75
2022/05/15 01:46:14;;;;;;;17.20;10.00;;;;;;;14.88;69.66;95157.59;5007642;28;20034;-75
2022/05/15 01:48:40;;;;;;;14.55;8.43;;;;;;;14.83;70.04;95150.47;5008949;28;20521;-74
2022/05/15 01:51:05;;;;;;;15.05;8.48;;;;;;;14.80;70.01;95150.97;5027929;28;20034;-74
2022/05/15 01:53:31;;;;;;;12.30;7.90;;;;;;;14.80;69.84;95152.78;5022662;28;20034;-75
2022/05/15 01:55:56;;;;;;;17.95;8.68;;;;;;;14.77;69.75;95156.69;5009998;28;20046;-74
2022/05/15 01:58:22;;;;;;;17.92;8.88;;;;;;;14.77;69.78;95150.66;5009894;28;20125;-74
2022/05/15 02:00:47;;;;;;;14.98;8.48;;;;;;;14.75;69.87;95150.13;5008274;28;20034;-74
2022/05/15 02:03:13;;;;;;;13.27;8.43;;;;;;;14.74;69.68;95151.97;5008609;28;20516;-74
2022/05/15 02:05:38;;;;;;;18.55;8.70;;;;;;;14.75;69.84;95150.91;5009699;28;20042;-75
2022/05/15 02:08:04;;;;;;;15.30;8.35;;;;;;;14.72;70.03;95151.44;5009996;28;20048;-74
2022/05/15 02:10:29;;;;;;;20.15;9.05;;;;;;;14.71;70.05;95147.22;5008442;28;20437;-74
2022/05/15 02:12:55;;;;;;;17.65;8.93;;;;;;;14.67;70.45;95146.16;5008609;28;20045;-75
2022/05/15 02:15:20;;;;;;;10.15;8.68;;;;;;;14.69;70.15;95154.53;5024542;28;20053;-76
2022/05/15 02:17:46;;;;;;;13.25;8.30;;;;;;;14.68;69.35;95151.13;5018038;28;21006;-75
2022/05/15 02:20:11;;;;;;;13.57;7.88;;;;;;;14.69;69.57;95155.34;4992784;28;20048;-75
2022/05/15 02:22:38;;;;;;;14.40;7.13;;;;;;;14.71;68.88;95152.47;4993062;28;20101;-75
2022/05/15 02:25:05;;;;;;;14.63;7.97;;;;;;;14.71;68.68;95158.50;5008630;28;20517;-76
2022/05/15 02:27:31;;;;;;;10.07;7.60;;;;;;;14.70;69.12;95158.75;5008355;28;20046;-75
2022/05/15 02:29:56;;;;;;;14.70;8.40;;;;;;;14.74;68.82;95165.06;5007955;28;20022;-74
2022/05/15 02:32:22;;;;;;;16.95;8.23;;;;;;;14.74;68.21;95162.44;5007884;28;20056;-74
2022/05/15 02:34:47;;;;;;;14.65;8.38;;;;;;;14.73;68.83;95163.47;5009382;28;20789;-74
2022/05/15 02:37:12;;;;;;;21.75;8.02;;;;;;;14.73;68.95;95160.84;5009049;28;20120;-75
2022/05/15 02:39:38;;;;;;;19.98;7.25;;;;;;;14.69;69.52;95170.25;5009399;28;20061;-74
2022/05/15 02:42:04;;;;;;;25.48;7.65;;;;;;;14.66;69.75;95170.75;5007788;28;20053;-74
2022/05/15 02:44:29;;;;;;;16.83;7.15;;;;;;;14.62;68.99;95174.88;5008023;28;20069;-75
2022/05/15 02:46:55;;;;;;;19.30;6.90;;;;;;;14.56;69.32;95168.03;4992046;28;20064;-75
2022/05/15 02:52:05;;;;;;;9.57;6.20;;;;;;;14.55;67.60;95169.06;5009280;28;20052;-76
2022/05/15 02:54:31;;;;;;;18.88;7.20;;;;;;;14.55;67.22;95174.31;4991835;28;20421;-75
2022/05/15 02:56:57;;;;;;;10.65;6.45;;;;;;;14.49;67.69;95170.06;4993336;28;20041;-74
2022/05/15 02:59:23;;;;;;;32.42;8.88;;;;;;;14.47;67.71;95178.13;4994704;28;20026;-75
2022/05/15 03:01:49;;;;;;;24.02;8.93;;;;;;;14.46;68.54;95175.78;5010832;28;20034;-75
2022/05/15 03:04:14;;;;;;;29.52;7.78;;;;;;;14.48;68.38;95178.94;5011557;28;20026;-74
2022/05/15 03:06:40;;;;;;;33.10;8.35;;;;;;;14.49;68.66;95181.31;5012550;28;20037;-75
2022/05/15 03:09:05;;;;;;;19.63;8.15;;;;;;;14.51;68.42;95187.09;5012292;28;20030;-75
2022/05/15 03:11:33;;;;;;;18.58;6.70;;;;;;;14.56;68.39;95191.59;4994074;28;20033;-75
2022/05/15 03:13:59;;;;;;;22.33;7.75;;;;;;;14.58;67.60;95195.53;5011497;28;20038;-75
2022/05/15 03:16:28;;;;;;;24.65;7.93;;;;;;;14.62;67.84;95188.75;5011772;28;20556;-74
2022/05/15 03:18:53;;;;;;;17.23;7.45;;;;;;;14.65;68.25;95190.91;5012246;28;20033;-74
2022/05/15 03:21:31;;;;;;;28.33;8.20;;;;;;;14.72;68.21;95193.31;5010389;28;20103;-74
2022/05/15 03:24:01;;;;;;;22.63;6.47;;;;;;;14.74;68.12;95190.44;5011382;28;20026;-74
2022/05/15 03:26:27;;;;;;;19.80;6.80;;;;;;;14.75;67.87;95190.19;5010937;28;20034;-74
2022/05/15 03:28:53;;;;;;;19.67;6.45;;;;;;;14.82;67.21;95190.00;4994008;28;20028;-76
2022/05/15 03:31:18;;;;;;;23.13;6.15;;;;;;;14.88;67.36;95183.75;4994973;28;20037;-74
2022/05/15 03:33:44;;;;;;;19.70;6.57;;;;;;;14.94;66.60;95188.78;5014395;28;20034;-74
2022/05/15 03:36:12;;;;;;;19.63;6.75;;;;;;;14.99;66.76;95193.28;5015716;28;20486;-74
2022/05/15 03:38:41;;;;;;;14.10;6.00;;;;;;;15.06;66.22;95185.22;5015230;28;20037;-74
2022/05/15 03:41:07;;;;;;;31.50;7.22;;;;;;;15.16;66.39;95193.16;5012747;28;20044;-74
2022/05/15 03:43:34;;;;;;;16.90;7.43;;;;;;;15.20;66.75;95192.41;4994699;28;20041;-75
2022/05/15 03:45:59;;;;;;;19.08;7.28;;;;;;;15.25;65.89;95196.88;5010605;28;20041;-74
2022/05/15 03:48:25;;;;;;;26.25;7.70;;;;;;;15.30;65.72;95197.72;5010793;28;20046;-74
2022/05/15 03:50:50;;;;;;;13.60;7.85;;;;;;;15.45;64.60;95199.63;5010161;28;20026;-74
2022/05/15 03:53:15;;;;;;;11.35;7.35;;;;;;;15.57;64.05;95196.84;5010428;28;20034;-74
2022/05/15 03:55:41;;;;;;;17.73;8.43;;;;;;;15.68;64.11;95192.47;5011813;28;20034;-75
2022/05/15 03:58:06;;;;;;;18.42;8.35;;;;;;;15.88;64.05;95195.19;4993681;28;20048;-76
2022/05/15 04:00:34;;;;;;;26.17;8.40;;;;;;;16.05;63.59;95198.44;5010097;28;20034;-74
2022/05/15 04:03:00;;;;;;;26.20;7.95;;;;;;;16.73;63.18;95199.16;5011326;28;20033;-75
2022/05/15 04:05:25;;;;;;;21.10;7.20;;;;;;;18.60;56.30;95199.09;5010395;28;20146;-75
2022/05/15 04:07:50;;;;;;;9.25;6.07;;;;;;;20.50;50.50;95197.13;5009250;28;20034;-75
2022/05/15 04:10:17;;;;;;;22.45;7.53;;;;;;;22.36;46.83;95199.63;5010186;28;20030;-75
2022/05/15 04:12:43;;;;;;;29.17;6.60;;;;;;;24.08;43.24;95198.50;5009931;28;20034;-75
2022/05/15 04:15:09;;;;;;;44.28;8.32;;;;;;;25.68;39.39;95193.16;5010295;28;20049;-76
2022/05/15 04:17:42;;;;;;;16.50;4.85;;;;;;;27.18;35.20;95196.31;5011181;28;20112;-75
2022/05/15 04:20:09;;;;;;;9.48;3.80;;;;;;;28.40;31.70;95193.91;5009944;28;20045;-75
2022/05/15 04:22:34;;;;;;;19.83;4.47;;;;;;;29.44;29.57;95203.00;5017711;28;20041;-74
2022/05/15 04:24:59;;;;;;;13.60;3.92;;;;;;;30.19;29.16;95203.06;5019460;28;20030;-75
2022/05/15 04:27:25;;;;;;;16.90;4.20;;;;;;;31.60;27.39;95204.56;5010004;28;20037;-75
2022/05/15 04:29:52;;;;;;;13.15;4.95;;;;;;;32.51;26.94;95201.09;4993458;28;20040;-75
2022/05/15 04:32:17;;;;;;;8.02;3.78;;;;;;;33.48;25.26;95205.84;5010067;28;20034;-77
2022/05/15 04:34:43;;;;;;;21.25;3.60;;;;;;;34.41;23.67;95202.13;5011055;28;20401;-76
2022/05/15 04:37:08;;;;;;;6.75;3.85;;;;;;;35.34;22.50;95205.34;5011063;28;20045;-77
2022/05/15 04:39:34;;;;;;;9.32;4.05;;;;;;;36.20;21.42;95204.38;5011428;28;20040;-75
2022/05/15 04:42:00;;;;;;;14.07;4.10;;;;;;;36.91;19.93;95196.19;5010835;28;20034;-75
2022/05/15 04:44:26;;;;;;;11.40;4.07;;;;;;;37.51;19.90;95195.22;5010148;28;20053;-75
2022/05/15 04:46:52;;;;;;;8.40;3.92;;;;;;;38.10;19.04;95200.69;4997236;28;20477;-76
2022/05/15 04:49:17;;;;;;;13.15;4.22;;;;;;;38.75;18.28;95197.44;5017181;28;20040;-77
2022/05/15 04:51:42;;;;;;;9.57;4.05;;;;;;;39.38;17.67;95193.25;5012681;28;20049;-76
2022/05/15 04:54:08;;;;;;;5.60;3.70;;;;;;;40.11;16.76;95200.03;5010508;28;20045;-76
2022/05/15 04:56:33;;;;;;;18.30;4.45;;;;;;;40.67;16.83;95205.72;5011864;28;20465;-76
2022/05/15 04:58:59;;;;;;;10.35;3.97;;;;;;;41.46;15.75;95192.13;5009587;28;20042;-76
2022/05/15 05:01:25;;;;;;;15.43;3.90;;;;;;;42.34;15.41;95196.03;5010973;28;20034;-76
2022/05/15 05:03:52;;;;;;;9.98;3.47;;;;;;;42.98;15.16;95197.91;5011638;28;20524;-76
2022/05/15 05:06:18;;;;;;;10.48;3.28;;;;;;;43.54;14.82;95197.50;5009379;28;20048;-76
2022/05/15 05:08:43;;;;;;;14.40;3.13;;;;;;;43.99;14.46;95204.78;5011271;28;20045;-75
2022/05/15 05:11:09;;;;;;;8.85;3.90;;;;;;;44.52;13.80;95203.09;5026154;28;20040;-76
2022/05/15 05:13:34;;;;;;;20.55;3.65;;;;;;;44.71;13.48;95201.25;5009123;28;20040;-76
2022/05/15 05:16:00;;;;;;;11.55;2.83;;;;;;;45.23;12.71;95207.31;5010979;28;20030;-75
2022/05/15 05:18:25;;;;;;;8.15;3.17;;;;;;;45.66;12.90;95195.53;4995060;28;20052;-75
2022/05/15 05:20:51;;;;;;;4.25;2.83;;;;;;;46.17;12.23;95189.63;4976549;28;20037;-75
2022/05/15 05:23:16;;;;;;;9.25;3.50;;;;;;;46.10;11.92;95196.19;5008629;28;20065;-76
2022/05/15 05:25:42;;;;;;;11.40;3.22;;;;;;;46.81;11.46;95198.78;4992553;28;20438;-75
2022/05/15 05:28:07;;;;;;;8.05;3.03;;;;;;;47.41;10.98;95195.34;5008736;28;20026;-76
2022/05/15 05:30:33;;;;;;;10.57;3.10;;;;;;;47.82;10.76;95193.84;5008823;28;20561;-76
2022/05/15 05:32:58;;;;;;;20.63;3.22;;;;;;;48.32;10.64;95194.22;5009502;28;20125;-76
2022/05/15 05:35:24;;;;;;;12.40;3.00;;;;;;;48.84;9.66;95194.06;4992294;28;20048;-76
2022/05/15 05:37:50;;;;;;;8.57;3.42;;;;;;;49.17;9.32;95189.16;5008202;28;20107;-76
2022/05/15 05:40:16;;;;;;;14.30;3.45;;;;;;;49.55;9.58;95190.31;5010617;28;20026;-77
2022/05/15 05:42:41;;;;;;;15.13;3.30;;;;;;;49.91;9.07;95202.19;5009069;28;20117;-75
2022/05/15 05:45:07;;;;;;;8.07;3.30;;;;;;;49.85;9.49;95186.28;5012838;28;20053;-85
2022/05/15 05:47:33;;;;;;;17.85;4.00;;;;;;;49.61;9.10;95185.63;4995409;28;20038;-86
2022/05/15 05:49:59;;;;;;;9.55;3.97;;;;;;;49.60;9.29;95189.63;5010486;28;20061;-86
2022/05/15 05:52:25;;;;;;;11.85;4.40;;;;;;;49.44;9.49;95185.34;5012661;28;20046;-85
2022/05/15 05:54:51;;;;;;;10.70;3.80;;;;;;;49.21;9.33;95186.97;4978923;28;20073;-85
2022/05/15 05:57:17;;;;;;;21.23;4.22;;;;;;;48.98;9.61;95185.03;4995597;28;20026;-85
2022/05/15 05:59:43;;;;;;;8.30;4.05;;;;;;;48.18;10.49;95181.13;4980736;28;20422;-85
2022/05/15 06:02:08;;;;;;;9.50;3.92;;;;;;;47.97;10.61;95185.69;5013503;28;20061;-84
2022/05/15 06:04:40;;;;;;;13.45;4.30;;;;;;;48.23;9.86;95185.25;4996848;28;20057;-85
2022/05/15 06:07:06;;;;;;;11.57;4.03;;;;;;;47.83;10.63;95180.81;5011208;28;20042;-85
2022/05/15 06:09:32;;;;;;;8.40;3.85;;;;;;;47.58;10.62;95184.00;5019343;28;20041;-84
2022/05/15 06:11:57;;;;;;;16.27;4.18;;;;;;;47.28;11.18;95185.75;5014381;28;20486;-85
2022/05/15 06:14:25;;;;;;;8.73;3.33;;;;;;;46.36;11.36;95178.19;5012853;28;20371;-87
2022/05/15 06:16:50;;;;;;;9.75;3.63;;;;;;;45.46;12.37;95182.16;5011480;28;20030;-85
2022/05/15 06:22:39;;;;;;;9.98;3.63;;;;;;;45.22;12.52;95184.56;4990972;28;20133;-84
2022/05/15 06:25:05;;;;;;;12.95;3.50;;;;;;;44.75;12.83;95181.91;5015117;28;20464;-85
2022/05/15 06:27:30;;;;;;;11.73;3.88;;;;;;;43.50;13.77;95185.13;5031912;28;20042;-85
2022/05/15 06:29:58;;;;;;;5.55;3.42;;;;;;;42.87;14.17;95191.16;5018037;28;20049;-84
2022/05/15 06:32:23;;;;;;;9.70;2.92;;;;;;;41.89;14.34;95185.75;5006794;28;20030;-85
2022/05/15 06:34:50;;;;;;;9.27;2.95;;;;;;;40.90;15.32;95191.31;5004925;28;20045;-83
2022/05/15 06:37:15;;;;;;;9.30;3.85;;;;;;;39.20;17.31;95190.72;5020715;28;20112;-83
2022/05/15 06:39:41;;;;;;;16.02;3.92;;;;;;;38.02;18.58;95196.47;5016898;28;20485;-74
2022/05/15 06:42:07;;;;;;;8.25;3.45;;;;;;;36.92;19.76;95183.41;5016810;28;20073;-84
2022/05/15 06:44:32;;;;;;;13.52;3.20;;;;;;;36.23;20.57;95192.78;5001834;28;20044;-83
2022/05/15 06:46:58;;;;;;;14.20;5.70;;;;;;;35.30;21.22;95186.38;5020052;28;20488;-82
2022/05/15 06:49:24;;;;;;;11.80;5.30;;;;;;;34.43;22.66;95191.72;5006488;28;20073;-84
2022/05/15 06:51:50;;;;;;;11.48;3.42;;;;;;;33.62;23.18;95197.91;5003906;28;20038;-83
2022/05/15 06:54:16;;;;;;;5.88;3.50;;;;;;;32.93;23.80;95194.00;5022104;28;20422;-86
2022/05/15 06:59:42;;;;;;;15.32;3.75;;;;;;;32.20;25.44;95188.69;4995121;28;20046;-83
2022/05/15 07:02:08;;;;;;;10.93;4.38;;;;;;;31.90;25.21;95198.59;5013830;28;20505;-83
2022/05/15 07:04:33;;;;;;;10.25;3.80;;;;;;;31.81;25.81;95198.81;5019033;28;20463;-84
2022/05/15 07:06:59;;;;;;;15.57;3.65;;;;;;;31.72;26.00;95190.16;5016738;28;20045;-81
2022/05/15 07:09:26;;;;;;;13.57;3.03;;;;;;;31.65;25.92;95184.66;5016781;28;20041;-82
2022/05/15 07:11:52;;;;;;;9.38;3.05;;;;;;;31.54;25.97;95176.41;5000307;28;20037;-82
2022/05/15 07:14:18;;;;;;;10.63;3.08;;;;;;;31.64;25.45;95183.88;5026849;28;20611;-82
2022/05/15 07:16:43;;;;;;;15.30;3.28;;;;;;;31.60;25.90;95193.81;5029453;28;20033;-82
2022/05/15 07:19:09;;;;;;;6.65;2.50;;;;;;;31.65;25.89;95179.28;5010162;28;20054;-82
2022/05/15 07:21:35;;;;;;;3.60;2.22;;;;;;;31.48;25.27;95185.13;5024554;28;20061;-83
2022/05/15 07:24:00;;;;;;;4.10;2.20;;;;;;;31.02;24.42;95188.44;5012116;28;20120;-82
2022/05/15 07:26:26;;;;;;;5.60;2.38;;;;;;;30.65;25.62;95188.03;5019739;28;20038;-82
2022/05/15 07:28:51;;;;;;;5.75;2.47;;;;;;;30.37;25.77;95187.38;5017858;28;20113;-83
2022/05/15 07:31:33;;;;;;;13.00;2.50;;;;;;;30.28;26.25;95192.16;4984376;28;20417;-82
2022/05/15 07:34:06;;;;;;;11.10;2.40;;;;;;;30.06;26.03;95191.63;5017029;28;20135;-83
2022/05/15 07:39:32;;;;;;;9.15;2.92;;;;;;;29.84;26.46;95197.56;5107685;22;20076;-83
2022/05/15 07:41:58;;;;;;;9.23;2.45;;;;;;;29.65;26.18;95200.94;5027380;28;20025;-83
2022/05/15 07:44:24;;;;;;;13.50;2.72;;;;;;;29.59;25.90;95191.56;5053187;28;20515;-82
2022/05/15 07:46:49;;;;;;;7.50;2.40;;;;;;;29.54;25.76;95199.88;5044166;28;20041;-82
2022/05/15 07:49:42;;;;;;;10.40;3.03;;;;;;;29.46;26.17;95192.78;5046124;28;20047;-83
2022/05/15 07:52:13;;;;;;;10.40;2.58;;;;;;;29.39;26.24;95193.31;5022368;28;20097;-81
2022/05/15 07:55:41;;;;;;;6.50;2.53;;;;;;;29.26;27.14;95176.50;5015163;28;20038;-81
2022/05/15 07:58:06;;;;;;;20.23;3.30;;;;;;;29.12;27.70;95202.13;5003382;28;20045;-81
2022/05/15 08:03:20;;;;;;;16.00;2.63;;;;;;;28.42;27.56;95196.22;5465631;22;20052;-83
2022/05/15 08:08:30;;;;;;;7.35;2.60;;;;;;;28.38;27.79;95206.81;5054826;28;20187;-80
2022/05/15 08:10:56;;;;;;;9.68;2.65;;;;;;;28.27;28.22;95197.69;5046963;28;20033;-83
2022/05/15 08:16:22;;;;;;;5.28;2.22;;;;;;;27.80;27.31;95214.88;5095405;22;20099;-83
2022/05/15 08:24:16;;;;;;;6.32;2.40;;;;;;;27.29;28.01;95224.16;5017399;28;20107;-82
2022/05/15 08:26:44;;;;;;;14.20;2.42;;;;;;;27.03;28.50;95227.06;5013957;28;20125;-82
2022/05/15 08:29:09;;;;;;;13.27;3.15;;;;;;;26.90;28.87;95220.81;4997176;28;20041;-82
2022/05/15 08:31:36;;;;;;;4.80;2.40;;;;;;;26.72;29.48;95224.72;5012005;28;20113;-82
2022/05/15 08:34:02;;;;;;;11.05;2.60;;;;;;;26.47;29.38;95226.44;5017058;28;20045;-82
2022/05/15 08:36:28;;;;;;;12.98;2.50;;;;;;;26.49;30.03;95224.22;5012601;28;20041;-81
2022/05/15 08:38:57;;;;;;;11.35;2.40;;;;;;;26.51;29.51;95226.56;5011388;28;20037;-82
2022/05/15 08:41:33;;;;;;;8.90;2.42;;;;;;;26.43;28.84;95219.41;4994564;28;20442;-82
2022/05/15 08:44:08;;;;;;;11.18;3.30;;;;;;;26.44;29.92;95223.63;5028191;28;20136;-82
2022/05/15 08:46:46;;;;;;;5.57;3.80;;;;;;;26.39;29.60;95215.81;5013002;28;20073;-82
2022/05/15 08:53:01;;;;;;;11.80;2.72;;;;;;;26.45;29.86;95222.53;5014577;28;20053;-83
2022/05/15 08:58:46;;;;;;;4.85;2.42;;;;;;;26.63;27.55;95226.66;5870930;22;21225;-82
2022/05/15 09:01:13;;;;;;;21.38;2.30;;;;;;;26.59;27.26;95231.84;4996165;28;20034;-82
2022/05/15 09:03:38;;;;;;;7.03;2.20;;;;;;;26.51;26.87;95215.88;4989332;28;20053;-83
2022/05/15 09:06:25;;;;;;;7.45;1.80;;;;;;;26.50;27.49;95225.78;5015027;28;20053;-83
2022/05/15 09:09:13;;;;;;;6.60;2.17;;;;;;;26.54;27.02;95220.59;5015617;28;20057;-83
2022/05/15 09:11:56;;;;;;;10.68;2.20;;;;;;;26.52;25.81;95218.25;5012378;28;20030;-78
2022/05/15 09:14:34;;;;;;;10.63;2.03;;;;;;;26.49;27.18;95218.88;5066038;23;20379;-76
2022/05/15 09:17:29;;;;;;;5.55;2.25;;;;;;;26.66;27.17;95217.22;4998003;28;20609;-82
2022/05/15 09:19:58;;;;;;;5.28;1.92;;;;;;;26.76;26.87;95214.97;4988101;28;20031;-81
2022/05/15 09:25:32;;;;;;;2.80;1.83;;;;;;;26.73;25.34;95210.28;4982678;28;20151;-80
2022/05/15 09:28:08;;;;;;;4.80;2.05;;;;;;;26.61;24.81;95210.97;4993944;28;20545;-80
2022/05/15 09:30:46;;;;;;;7.40;1.88;;;;;;;26.55;25.10;95206.16;4996010;28;20042;-79
2022/05/15 09:33:36;;;;;;;6.38;2.15;;;;;;;26.53;26.55;95209.16;4997229;28;20041;-79
2022/05/15 09:36:21;;;;;;;5.47;2.50;;;;;;;26.56;27.04;95202.38;4997733;28;20048;-79
2022/05/15 09:38:47;;;;;;;17.00;3.00;;;;;;;26.56;26.87;95213.06;4997080;28;20037;-78
2022/05/15 09:44:24;;;;;;;7.93;2.50;;;;;;;26.46;27.39;95211.53;4992943;28;20037;-79
2022/05/15 09:46:58;;;;;;;9.55;2.05;;;;;;;26.49;26.24;95204.75;4992729;28;20034;-78
2022/05/15 09:49:26;;;;;;;8.20;2.63;;;;;;;26.55;26.18;95206.16;4993016;28;20077;-78
2022/05/15 09:51:52;;;;;;;11.65;2.72;;;;;;;26.60;25.97;95203.28;4975685;28;20398;-79
2022/05/15 09:54:34;;;;;;;3.90;2.00;;;;;;;26.64;28.08;95198.88;4990510;28;20038;-78
2022/05/15 09:57:27;;;;;;;4.55;2.35;;;;;;;26.67;27.02;95197.44;4995763;28;20027;-78
2022/05/15 09:59:57;;;;;;;7.68;2.20;;;;;;;26.66;27.00;95188.66;4998609;28;20066;-79
2022/05/15 10:02:28;;;;;;;8.50;2.00;;;;;;;26.67;27.12;95186.75;5003497;28;20042;-78
2022/05/15 10:04:54;;;;;;;10.00;1.88;;;;;;;26.73;25.88;95196.94;4992926;28;20482;-81
2022/05/15 10:07:34;;;;;;;9.57;2.22;;;;;;;26.67;25.97;95192.09;4977705;28;20525;-85
2022/05/15 10:10:29;;;;;;;8.00;2.50;;;;;;;26.76;26.87;95185.63;5000654;28;20043;-86
2022/05/15 10:13:07;;;;;;;8.80;2.67;;;;;;;26.74;26.56;95198.50;4978838;28;20034;-85
2022/05/15 10:15:39;;;;;;;11.15;5.97;;;;;;;26.55;26.08;95195.50;4991651;28;20030;-81
2022/05/15 10:18:04;;;;;;;16.40;5.15;;;;;;;26.46;25.88;95202.75;4975771;28;20121;-78
2022/05/15 10:20:49;;;;;;;7.57;3.80;;;;;;;26.51;26.92;95195.34;4992110;28;20038;-78
2022/05/15 10:23:20;;;;;;;6.97;2.45;;;;;;;26.32;25.88;95198.41;4991721;28;20040;-83
2022/05/15 10:25:49;;;;;;;4.53;1.77;;;;;;;26.16;26.41;95186.72;4983853;28;20161;-80
2022/05/15 10:28:36;;;;;;;7.78;2.03;;;;;;;26.00;26.83;95191.03;5009768;28;20082;-81
2022/05/15 10:31:11;;;;;;;4.93;1.73;;;;;;;25.87;27.49;95186.69;5003944;28;20034;-81
2022/05/15 10:33:39;;;;;;;4.95;2.10;;;;;;;25.86;26.90;95179.78;4979510;28;20049;-80
2022/05/15 10:36:24;;;;;;;14.23;2.20;;;;;;;25.87;27.61;95182.16;4968387;28;20041;-81
2022/05/15 10:39:17;;;;;;;14.10;2.40;;;;;;;25.97;28.30;95181.00;5002802;28;20069;-81
2022/05/15 10:41:53;;;;;;;21.98;2.15;;;;;;;25.87;28.45;95182.16;4993944;28;20455;-80
2022/05/15 10:44:39;;;;;;;11.68;2.50;;;;;;;25.77;28.35;95179.06;4993610;28;20113;-81
2022/05/15 10:47:12;;;;;;;16.15;2.65;;;;;;;25.59;28.94;95181.75;4996434;28;20042;-80
2022/05/15 10:50:18;;;;;;;11.43;2.40;;;;;;;25.60;28.94;95177.97;4975621;28;20043;-80
2022/05/15 10:57:21;;;;;;;11.50;2.53;;;;;;;25.67;28.80;95175.59;4984153;28;20189;-80
2022/05/15 10:59:00;;;;;;;7.57;1.73;;;;;;;25.44;29.09;95172.38;4991692;28;20057;-81
2022/05/15 11:01:32;;;;;;;2.20;2.00;;;;;;;25.51;28.91;95174.53;4990695;28;20057;-79
2022/05/15 11:04:08;;;;;;;;;;;;;;;25.55;29.87;95167.50;4963301;28;20055;-80
2022/05/15 11:06:34;;;;;;;19.38;7.28;;;;;;;25.61;29.87;95171.56;4994423;28;19953;-80
2022/05/15 11:09:14;;;;;;;7.88;5.22;;;;;;;25.66;29.87;95166.03;4986358;28;20081;-80
2022/05/15 11:11:47;;;;;;;10.00;2.40;;;;;;;25.76;29.22;95164.19;5008197;23;20046;-80
2022/05/15 11:14:22;;;;;;;10.05;2.25;;;;;;;25.75;29.52;95167.94;4993360;28;20054;-79
2022/05/15 11:17:03;;;;;;;3.38;2.05;;;;;;;25.80;29.51;95167.75;5001896;28;20097;-79
2022/05/15 11:19:32;;;;;;;5.25;2.38;;;;;;;25.84;29.69;95161.47;5088456;23;20037;-79
2022/05/15 11:22:31;;;;;;;5.15;2.95;;;;;;;25.92;29.79;95163.31;5034912;28;20050;-80
2022/05/15 11:25:11;;;;;;;13.50;2.53;;;;;;;25.94;29.42;95163.00;5027438;28;20690;-79
2022/05/15 11:27:51;;;;;;;14.27;2.83;;;;;;;26.00;29.55;95153.72;5050435;28;20063;-78
2022/05/15 11:30:16;;;;;;;3.92;2.08;;;;;;;26.04;30.33;95157.31;5033303;28;20073;-79
2022/05/15 11:32:44;;;;;;;4.07;2.08;;;;;;;26.14;29.52;95151.59;5034298;28;20543;-79
2022/05/15 11:35:19;;;;;;;16.58;2.58;;;;;;;26.14;28.70;95146.28;5034136;28;20075;-78
2022/05/15 11:37:57;;;;;;;12.48;2.30;;;;;;;26.25;29.64;95139.47;5034076;28;20508;-78
2022/05/15 11:40:49;;;;;;;9.00;2.35;;;;;;;26.25;29.03;95144.81;5033185;28;20133;-79
2022/05/15 11:43:27;;;;;;;;;;;;;;;26.31;29.84;95142.72;5026814;28;20037;-78
2022/05/15 11:45:59;;;;;;;12.85;2.38;;;;;;;26.33;29.56;95143.97;5033544;28;19975;-79
2022/05/15 11:48:24;;;;;;;5.10;2.35;;;;;;;26.13;29.79;95150.06;5033682;28;20037;-79
2022/05/15 11:51:04;;;;;;;8.23;2.70;;;;;;;25.74;30.14;95140.53;5033178;28;20087;-79
2022/05/15 11:53:59;;;;;;;8.90;2.67;;;;;;;25.33;30.66;95141.84;5034543;28;20071;-79
2022/05/15 11:56:26;;;;;;;12.18;2.63;;;;;;;25.37;31.68;95142.00;5025831;28;20115;-79
2022/05/15 11:58:54;;;;;;;11.40;2.45;;;;;;;25.62;31.59;95135.81;5030367;28;20509;-78
2022/05/15 12:01:24;;;;;;;10.15;2.05;;;;;;;25.95;30.06;95135.25;5034620;28;20064;-79
2022/05/15 12:03:56;;;;;;;8.35;2.65;;;;;;;25.95;30.92;95129.94;5039446;28;20071;-79
2022/05/15 12:06:27;;;;;;;18.77;2.80;;;;;;;26.03;30.77;95131.75;5052477;28;20037;-79
2022/05/15 12:09:15;;;;;;;5.78;2.30;;;;;;;26.07;31.44;95127.38;5037770;28;20113;-78
2022/05/15 12:11:41;;;;;;;6.68;2.20;;;;;;;26.06;31.07;95131.13;5135736;23;20041;-77
2022/05/15 12:14:21;;;;;;;3.70;2.53;;;;;;;26.02;30.61;95133.63;5033565;28;20160;-80
2022/05/15 12:17:25;;;;;;;4.10;2.50;;;;;;;25.90;30.80;95132.78;5032741;28;20125;-80
2022/05/15 12:19:50;;;;;;;6.68;2.60;;;;;;;25.78;31.02;95124.69;5033294;28;20488;-81
2022/05/15 12:22:16;;;;;;;5.85;2.30;;;;;;;25.70;31.24;95127.03;5016202;28;20030;-78
2022/05/15 12:24:47;;;;;;;7.75;2.50;;;;;;;25.63;31.31;95133.94;5014309;28;20497;-81